createdAt,value
2023-04-18T00:00:12.340Z,8.05
2023-04-18T00:02:40.305Z,8.70
2023-04-18T00:05:08.734Z,9.00
2023-04-18T00:07:36.069Z,11.77
2023-04-18T00:10:06.019Z,8.93
2023-04-18T00:12:34.448Z,8.65
2023-04-18T00:15:02.397Z,8.90
2023-04-18T00:17:31.960Z,9.68
2023-04-18T00:20:02.401Z,8.80
2023-04-18T00:22:30.659Z,9.45
2023-04-18T00:24:57.721Z,9.88
2023-04-18T00:27:24.650Z,9.15
2023-04-18T00:29:51.726Z,8.77
2023-04-18T00:32:19.757Z,9.27
2023-04-18T00:34:46.932Z,8.85
2023-04-18T00:37:13.880Z,10.95
2023-04-18T00:39:42.399Z,9.93
2023-04-18T00:42:09.416Z,9.52
2023-04-18T00:44:36.395Z,10.40
2023-04-18T00:47:03.508Z,10.45
2023-04-18T00:49:30.867Z,12.82
2023-04-18T00:51:58.841Z,11.07
2023-04-18T00:54:27.960Z,10.15
2023-04-18T00:56:55.462Z,13.98
2023-04-18T00:59:23.236Z,10.32
2023-04-18T01:01:50.476Z,11.35
2023-04-18T01:04:17.816Z,10.15
2023-04-18T01:06:45.794Z,10.65
2023-04-18T01:09:14.131Z,11.82
2023-04-18T01:11:41.394Z,9.75
2023-04-18T01:14:10.056Z,10.38
2023-04-18T01:16:37.220Z,9.38
2023-04-18T01:19:05.897Z,12.60
2023-04-18T01:21:36.163Z,10.18
2023-04-18T01:24:12.553Z,12.30
2023-04-18T01:26:45.956Z,11.40
2023-04-18T01:29:14.111Z,10.77
2023-04-18T01:31:42.427Z,12.80
2023-04-18T01:34:09.735Z,12.82
2023-04-18T01:36:39.639Z,10.77
2023-04-18T01:39:07.257Z,9.52
2023-04-18T01:41:34.286Z,11.88
2023-04-18T01:44:01.723Z,11.65
2023-04-18T01:46:29.452Z,14.43
2023-04-18T01:48:57.897Z,11.57
2023-04-18T01:51:26.430Z,17.75
2023-04-18T01:53:54.117Z,13.70
2023-04-18T01:56:21.190Z,12.05
2023-04-18T01:58:48.356Z,12.05
2023-04-18T02:01:15.583Z,11.30
2023-04-18T02:03:43.212Z,11.60
2023-04-18T02:06:11.086Z,12.02
2023-04-18T02:08:38.738Z,11.88
2023-04-18T02:11:06.077Z,12.02
2023-04-18T02:13:33.198Z,12.70
2023-04-18T02:16:00.324Z,13.32
2023-04-18T02:18:27.939Z,16.00
2023-04-18T02:20:55.025Z,13.55
2023-04-18T02:23:22.574Z,15.23
2023-04-18T02:25:50.839Z,13.23
2023-04-18T02:28:18.119Z,12.77
2023-04-18T02:30:45.329Z,13.02
2023-04-18T02:33:12.302Z,11.10
2023-04-18T02:35:39.336Z,10.85
2023-04-18T02:38:06.456Z,10.70
2023-04-18T02:40:33.690Z,12.27
2023-04-18T02:43:02.121Z,12.10
2023-04-18T02:45:29.633Z,13.82
2023-04-18T02:47:59.721Z,13.85
2023-04-18T02:50:27.163Z,14.25
2023-04-18T02:52:56.208Z,14.23
2023-04-18T02:55:28.248Z,13.93
2023-04-18T02:57:59.117Z,11.68
2023-04-18T03:00:44.593Z,12.93
2023-04-18T03:03:41.187Z,12.57
2023-04-18T03:06:27.506Z,12.73
2023-04-18T03:08:56.267Z,15.38
2023-04-18T03:11:24.880Z,14.40
2023-04-18T03:13:54.030Z,14.52
2023-04-18T03:16:22.993Z,13.90
2023-04-18T03:18:50.306Z,12.38
2023-04-18T03:21:18.421Z,12.40
2023-04-18T03:23:45.616Z,13.18
2023-04-18T03:26:13.993Z,13.38
2023-04-18T03:28:42.782Z,13.65
2023-04-18T03:31:10.537Z,12.98
2023-04-18T03:33:42.423Z,12.75
2023-04-18T03:36:12.378Z,13.18
2023-04-18T03:38:40.712Z,18.45
2023-04-18T03:41:08.795Z,15.70
2023-04-18T03:43:37.757Z,35.78
2023-04-18T03:46:05.485Z,11.25
2023-04-18T03:48:35.892Z,21.05
2023-04-18T03:53:35.069Z,11.77
2023-04-18T03:56:02.323Z,10.15
2023-04-18T03:59:02.522Z,10.35
2023-04-18T04:01:31.014Z,11.43
2023-04-18T04:03:58.519Z,19.35
2023-04-18T04:06:26.517Z,19.38
2023-04-18T04:08:55.802Z,13.35
2023-04-18T04:11:26.054Z,13.02
2023-04-18T04:13:53.397Z,11.25
2023-04-18T04:16:25.150Z,10.68
2023-04-18T04:18:54.792Z,12.73
2023-04-18T04:21:27.174Z,12.30
2023-04-18T04:23:54.220Z,12.35
2023-04-18T04:26:36.120Z,10.75
2023-04-18T04:29:10.906Z,12.38
2023-04-18T04:31:39.682Z,11.88
2023-04-18T04:34:07.106Z,10.50
2023-04-18T04:36:35.025Z,20.50
2023-04-18T04:39:05.453Z,8.98
2023-04-18T04:41:42.164Z,9.05
2023-04-18T04:44:10.079Z,10.70
2023-04-18T04:46:39.595Z,10.48
2023-04-18T04:49:12.343Z,12.00
2023-04-18T04:51:40.224Z,11.23
2023-04-18T04:54:07.347Z,12.52
2023-04-18T04:56:34.749Z,11.25
2023-04-18T04:59:02.493Z,10.50
2023-04-18T05:01:40.919Z,10.32
2023-04-18T05:04:08.653Z,11.00
2023-04-18T05:06:37.883Z,12.20
2023-04-18T05:09:06.413Z,10.73
2023-04-18T05:11:39.751Z,11.95
2023-04-18T05:14:06.796Z,11.40
2023-04-18T05:16:34.166Z,13.07
2023-04-18T05:19:01.470Z,18.02
2023-04-18T05:21:29.512Z,14.40
2023-04-18T05:23:56.456Z,13.53
2023-04-18T05:26:24.591Z,15.40
2023-04-18T05:28:51.773Z,12.98
2023-04-18T05:31:18.968Z,11.43
2023-04-18T05:33:46.070Z,13.32
2023-04-18T05:36:13.571Z,16.48
2023-04-18T05:38:40.737Z,16.25
2023-04-18T05:41:07.876Z,16.67
2023-04-18T05:43:35.323Z,17.33
2023-04-18T05:46:03.361Z,18.35
2023-04-18T05:48:30.708Z,12.93
2023-04-18T05:50:58.086Z,16.05
2023-04-18T05:53:25.283Z,19.02
2023-04-18T05:55:52.267Z,21.40
2023-04-18T05:58:19.599Z,14.70
2023-04-18T06:00:48.346Z,15.05
2023-04-18T06:03:16.163Z,13.75
2023-04-18T06:05:43.764Z,14.93
2023-04-18T06:08:10.907Z,12.18
2023-04-18T06:10:39.262Z,14.65
2023-04-18T06:13:06.423Z,11.68
2023-04-18T06:15:35.461Z,16.83
2023-04-18T06:18:02.537Z,12.55
2023-04-18T06:20:29.672Z,11.38
2023-04-18T06:22:56.694Z,13.25
2023-04-18T06:25:24.944Z,16.02
2023-04-18T06:27:51.986Z,16.52
2023-04-18T06:30:22.020Z,9.38
2023-04-18T06:32:49.584Z,11.40
2023-04-18T06:35:16.921Z,10.77
2023-04-18T06:37:44.981Z,9.10
2023-04-18T06:40:12.652Z,9.07
2023-04-18T06:42:39.938Z,11.18
2023-04-18T06:45:07.921Z,13.38
2023-04-18T06:50:02.146Z,9.73
2023-04-18T06:52:29.230Z,13.73
2023-04-18T06:54:56.267Z,10.52
2023-04-18T06:57:23.579Z,11.80
2023-04-18T06:59:50.902Z,14.38
2023-04-18T07:02:17.949Z,13.10
2023-04-18T07:04:45.203Z,11.93
2023-04-18T07:07:12.319Z,13.65
2023-04-18T07:09:39.522Z,17.95
2023-04-18T07:12:06.838Z,11.98
2023-04-18T07:14:34.283Z,11.23
2023-04-18T07:17:02.182Z,14.68
2023-04-18T07:19:29.334Z,13.02
2023-04-18T07:21:56.699Z,15.40
2023-04-18T07:24:24.013Z,12.60
2023-04-18T07:26:54.801Z,16.02
2023-04-18T07:29:22.254Z,14.38
2023-04-18T07:31:49.946Z,12.43
2023-04-18T07:34:17.904Z,13.13
2023-04-18T07:36:45.104Z,13.98
2023-04-18T07:39:12.173Z,14.80
2023-04-18T07:41:39.143Z,15.00
2023-04-18T07:44:07.573Z,14.20
2023-04-18T07:46:34.976Z,14.15
2023-04-18T07:49:02.519Z,15.77
2023-04-18T07:51:32.447Z,13.63
2023-04-18T07:53:59.815Z,17.20
2023-04-18T07:56:28.113Z,16.77
2023-04-18T07:58:55.740Z,14.32
2023-04-18T08:01:24.337Z,19.60
2023-04-18T08:03:53.627Z,14.85
2023-04-18T08:06:21.502Z,14.02
2023-04-18T08:08:49.039Z,12.13
2023-04-18T08:11:16.618Z,16.48
2023-04-18T08:13:43.760Z,15.80
2023-04-18T08:16:11.133Z,16.05
2023-04-18T08:18:38.398Z,16.95
2023-04-18T08:21:05.635Z,14.73
2023-04-18T08:23:32.727Z,19.92
2023-04-18T08:25:59.853Z,15.70
2023-04-18T08:28:26.963Z,14.45
2023-04-18T08:30:55.339Z,16.58
2023-04-18T08:33:24.078Z,14.32
2023-04-18T08:35:51.936Z,14.02
2023-04-18T08:38:19.396Z,13.07
2023-04-18T08:40:47.202Z,9.90
2023-04-18T08:43:15.788Z,11.02
2023-04-18T08:45:44.709Z,12.40
2023-04-18T08:48:14.112Z,9.82
2023-04-18T08:50:42.385Z,12.82
2023-04-18T08:53:10.674Z,9.88
2023-04-18T08:55:37.951Z,9.75
2023-04-18T08:58:06.958Z,9.85
2023-04-18T09:00:34.298Z,9.57
2023-04-18T09:03:03.812Z,10.23
2023-04-18T09:05:32.525Z,9.45
2023-04-18T09:08:02.039Z,8.18
2023-04-18T09:10:34.508Z,10.48
2023-04-18T09:13:04.429Z,11.70
2023-04-18T09:15:31.976Z,8.68
2023-04-18T09:18:03.230Z,7.80
2023-04-18T09:20:41.439Z,9.25
2023-04-18T09:23:14.589Z,8.75
2023-04-18T09:25:44.382Z,8.18
2023-04-18T09:28:31.903Z,7.55
2023-04-18T09:31:15.639Z,6.60
2023-04-18T09:33:56.971Z,9.25
2023-04-18T09:36:31.182Z,7.95
2023-04-18T09:41:27.121Z,8.70
2023-04-18T09:44:14.641Z,10.13
2023-04-18T09:46:46.165Z,11.10
2023-04-18T09:49:14.912Z,9.07
2023-04-18T09:51:44.675Z,8.85
2023-04-18T09:54:16.215Z,10.18
2023-04-18T09:56:46.152Z,8.68
2023-04-18T09:59:18.660Z,6.65
2023-04-18T10:01:49.824Z,5.72
2023-04-18T10:04:18.388Z,5.30
2023-04-18T10:06:46.524Z,4.13
2023-04-18T10:09:16.095Z,6.50
2023-04-18T10:11:44.641Z,5.57
2023-04-18T10:14:14.218Z,8.23
2023-04-18T10:16:43.078Z,5.63
2023-04-18T10:19:30.400Z,5.68
2023-04-18T10:22:01.046Z,5.22
2023-04-18T10:24:53.602Z,6.55
2023-04-18T10:27:48.750Z,5.05
2023-04-18T10:30:17.205Z,8.13
2023-04-18T10:32:46.946Z,5.05
2023-04-18T10:35:14.227Z,5.68
2023-04-18T10:37:51.865Z,4.78
2023-04-18T10:40:34.125Z,4.22
2023-04-18T10:43:01.730Z,4.20
2023-04-18T10:45:32.605Z,5.10
2023-04-18T10:48:24.669Z,5.13
2023-04-18T10:51:20.927Z,8.30
2023-04-18T10:54:00.463Z,8.88
2023-04-18T10:56:29.115Z,6.60
2023-04-18T10:59:03.378Z,7.53
2023-04-18T11:01:33.140Z,5.47
2023-04-18T11:04:01.496Z,5.35
2023-04-18T11:06:30.422Z,6.03
2023-04-18T11:09:12.101Z,5.80
2023-04-18T11:11:41.016Z,3.85
2023-04-18T11:14:08.432Z,3.05
2023-04-18T11:16:36.552Z,1.60
2023-04-18T11:19:22.016Z,2.80
2023-04-18T11:21:49.665Z,4.25
2023-04-18T11:24:26.663Z,3.63
2023-04-18T11:26:56.099Z,2.67
2023-04-18T11:29:23.512Z,2.70
2023-04-18T11:31:55.275Z,3.40
2023-04-18T11:34:30.676Z,3.58
2023-04-18T11:39:25.670Z,2.90
2023-04-18T11:41:55.003Z,2.40
2023-04-18T11:44:26.943Z,3.08
2023-04-18T11:46:54.182Z,2.78
2023-04-18T11:49:29.000Z,2.78
2023-04-18T11:51:56.484Z,3.05
2023-04-18T11:54:45.446Z,3.85
2023-04-18T11:57:39.082Z,4.78
2023-04-18T12:00:08.958Z,3.83
2023-04-18T12:02:59.430Z,4.72
2023-04-18T12:05:38.181Z,4.18
2023-04-18T12:08:20.036Z,4.07
2023-04-18T12:10:50.853Z,4.00
2023-04-18T12:13:19.600Z,4.63
2023-04-18T12:15:47.184Z,5.65
2023-04-18T12:18:18.295Z,11.13
2023-04-18T12:20:54.552Z,5.68
2023-04-18T12:23:40.366Z,3.78
2023-04-18T12:26:18.813Z,5.28
2023-04-18T12:28:48.113Z,3.33
2023-04-18T12:31:15.699Z,3.42
2023-04-18T12:33:43.219Z,3.30
2023-04-18T12:36:10.524Z,1.83
2023-04-18T12:38:37.623Z,3.88
2023-04-18T12:41:05.598Z,1.88
2023-04-18T12:43:32.804Z,2.50
2023-04-18T12:46:00.383Z,2.47
2023-04-18T12:48:27.432Z,4.68
2023-04-18T12:50:54.451Z,3.92
2023-04-18T12:53:21.510Z,3.50
2023-04-18T12:55:48.465Z,3.53
2023-04-18T12:58:18.699Z,4.03
2023-04-18T13:00:46.247Z,4.22
2023-04-18T13:03:13.654Z,7.10
2023-04-18T13:05:41.130Z,7.07
2023-04-18T13:08:17.079Z,9.10
2023-04-18T13:10:47.636Z,6.10
2023-04-18T13:13:14.902Z,6.15
2023-04-18T13:15:42.619Z,8.05
2023-04-18T13:18:09.672Z,8.77
2023-04-18T13:20:36.745Z,9.18
2023-04-18T13:23:04.045Z,9.10
2023-04-18T13:25:31.516Z,9.02
2023-04-18T13:28:00.746Z,6.32
2023-04-18T13:30:28.661Z,5.63
2023-04-18T13:32:56.844Z,5.32
2023-04-18T13:35:23.946Z,4.63
2023-04-18T13:37:50.956Z,5.85
2023-04-18T13:40:18.168Z,6.55
2023-04-18T13:42:45.334Z,5.40
2023-04-18T13:45:12.540Z,6.80
2023-04-18T13:47:39.796Z,6.53
2023-04-18T13:50:09.051Z,6.15
2023-04-18T13:52:36.487Z,4.90
2023-04-18T13:55:04.106Z,10.55
2023-04-18T13:57:32.359Z,7.20
2023-04-18T13:59:59.580Z,8.15
2023-04-18T14:02:26.903Z,5.22
2023-04-18T14:04:55.141Z,7.38
2023-04-18T14:07:22.428Z,6.95
2023-04-18T14:09:50.821Z,11.82
2023-04-18T14:12:18.771Z,6.15
2023-04-18T14:14:45.840Z,5.13
2023-04-18T14:17:12.891Z,6.50
2023-04-18T14:19:39.973Z,6.32
2023-04-18T14:22:07.927Z,9.15
2023-04-18T14:24:37.740Z,7.38
2023-04-18T14:27:04.926Z,7.57
2023-04-18T14:29:32.140Z,7.80
2023-04-18T14:31:59.572Z,4.10
2023-04-18T14:34:26.806Z,5.85
2023-04-18T14:36:53.829Z,3.45
2023-04-18T14:39:21.510Z,4.47
2023-04-18T14:41:48.619Z,5.00
2023-04-18T14:44:15.735Z,4.50
2023-04-18T14:46:43.315Z,5.18
2023-04-18T14:49:10.345Z,6.53
2023-04-18T14:51:37.411Z,8.45
2023-04-18T14:54:04.591Z,7.30
2023-04-18T14:56:31.796Z,8.18
2023-04-18T14:58:58.812Z,12.20
2023-04-18T15:01:26.324Z,8.57
2023-04-18T15:03:53.903Z,5.82
2023-04-18T15:06:21.273Z,5.28
2023-04-18T15:08:48.690Z,6.55
2023-04-18T15:11:15.957Z,7.13
2023-04-18T15:13:43.049Z,2.80
2023-04-18T15:16:10.214Z,5.38
2023-04-18T15:18:37.269Z,3.97
2023-04-18T15:21:04.605Z,5.50
2023-04-18T15:23:32.143Z,6.70
2023-04-18T15:25:59.467Z,5.18
2023-04-18T15:28:26.577Z,5.43
2023-04-18T15:30:54.215Z,4.43
2023-04-18T15:33:21.831Z,4.10
2023-04-18T15:35:48.858Z,4.10
2023-04-18T15:38:15.810Z,2.78
2023-04-18T15:40:43.606Z,3.70
2023-04-18T15:43:10.800Z,6.70
2023-04-18T15:45:37.834Z,4.28
2023-04-18T15:48:05.022Z,6.78
2023-04-18T15:50:33.613Z,2.83
2023-04-18T15:53:00.843Z,4.82
2023-04-18T15:55:28.554Z,2.53
2023-04-18T15:57:56.111Z,3.83
2023-04-18T16:00:24.028Z,3.13
2023-04-18T16:02:51.483Z,1.77
2023-04-18T16:05:19.060Z,11.00
2023-04-18T16:07:46.151Z,3.13
2023-04-18T16:10:15.338Z,4.25
2023-04-18T16:12:43.085Z,4.40
2023-04-18T16:15:11.197Z,3.72
2023-04-18T16:17:38.736Z,4.95
2023-04-18T16:20:08.581Z,4.15
2023-04-18T16:22:37.019Z,4.97
2023-04-18T16:25:05.196Z,5.53
2023-04-18T16:27:33.154Z,6.93
2023-04-18T16:30:02.097Z,5.93
2023-04-18T16:32:30.760Z,6.97
2023-04-18T16:34:58.214Z,6.15
2023-04-18T16:37:25.400Z,8.00
2023-04-18T16:39:52.613Z,8.23
2023-04-18T16:42:19.811Z,7.15
2023-04-18T16:44:47.347Z,6.88
2023-04-18T16:47:14.422Z,6.43
2023-04-18T16:49:43.534Z,6.43
2023-04-18T16:52:10.553Z,9.40
2023-04-18T16:54:37.607Z,6.95
2023-04-18T16:57:05.230Z,7.13
2023-04-18T16:59:32.421Z,8.68
2023-04-18T17:01:59.740Z,11.50
2023-04-18T17:04:27.206Z,14.68
2023-04-18T17:06:54.340Z,9.68
2023-04-18T17:09:22.047Z,15.20
2023-04-18T17:11:49.938Z,12.98
2023-04-18T17:14:18.341Z,14.25
2023-04-18T17:16:45.967Z,12.57
2023-04-18T17:19:13.378Z,13.73
2023-04-18T17:21:40.709Z,11.57
2023-04-18T17:24:08.124Z,14.65
2023-04-18T17:26:37.906Z,19.75
2023-04-18T17:29:04.994Z,11.48
2023-04-18T17:31:32.837Z,16.10
2023-04-18T17:34:00.396Z,14.88
2023-04-18T17:36:27.865Z,15.75
2023-04-18T17:38:55.481Z,11.13
2023-04-18T17:41:22.778Z,14.30
2023-04-18T17:43:53.598Z,11.95
2023-04-18T17:46:20.658Z,12.95
2023-04-18T17:48:47.707Z,12.75
2023-04-18T17:51:16.474Z,14.32
2023-04-18T17:53:46.940Z,13.75
2023-04-18T17:56:13.906Z,13.73
2023-04-18T17:58:41.225Z,14.23
2023-04-18T18:01:19.603Z,11.02
2023-04-18T18:03:48.241Z,11.55
2023-04-18T18:06:15.891Z,13.00
2023-04-18T18:08:43.561Z,14.60
2023-04-18T18:11:10.801Z,12.43
2023-04-18T18:13:39.163Z,11.43
2023-04-18T18:16:07.611Z,14.15
2023-04-18T18:18:35.399Z,11.25
2023-04-18T18:21:02.615Z,14.55
2023-04-18T18:23:29.550Z,14.82
2023-04-18T18:25:56.507Z,14.40
2023-04-18T18:28:23.495Z,12.48
2023-04-18T18:30:50.823Z,16.48
2023-04-18T18:33:18.115Z,13.40
2023-04-18T18:35:45.010Z,16.92
2023-04-18T18:38:12.031Z,11.50
2023-04-18T18:40:39.300Z,15.75
2023-04-18T18:43:06.419Z,13.35
2023-04-18T18:45:33.784Z,14.20
2023-04-18T18:48:00.852Z,14.07
2023-04-18T18:50:27.941Z,14.48
2023-04-18T18:52:55.011Z,16.25
2023-04-18T18:55:22.375Z,16.27
2023-04-18T18:57:49.806Z,17.60
2023-04-18T19:00:17.548Z,13.63
2023-04-18T19:02:46.214Z,13.88
2023-04-18T19:05:13.368Z,16.38
2023-04-18T19:07:43.557Z,18.75
2023-04-18T19:10:11.309Z,16.63
2023-04-18T19:12:38.563Z,14.05
2023-04-18T19:15:06.812Z,18.27
2023-04-18T19:17:34.088Z,15.75
2023-04-18T19:20:01.583Z,18.95
2023-04-18T19:22:29.838Z,25.17
2023-04-18T19:24:57.420Z,21.95
2023-04-18T19:27:24.389Z,33.78
2023-04-18T19:29:51.479Z,24.27
2023-04-18T19:32:18.472Z,29.65
2023-04-18T19:34:45.721Z,32.83
2023-04-18T19:37:12.768Z,24.35
2023-04-18T19:39:39.701Z,22.45
2023-04-18T19:42:07.456Z,26.15
2023-04-18T19:44:34.925Z,32.70
2023-04-18T19:47:01.911Z,28.48
2023-04-18T19:49:28.896Z,35.90
2023-04-18T19:51:55.892Z,30.10
2023-04-18T19:54:23.003Z,39.45
2023-04-18T19:56:50.407Z,25.83
2023-04-18T19:59:17.445Z,25.42
2023-04-18T20:01:44.895Z,20.70
2023-04-18T20:04:12.401Z,19.52
2023-04-18T20:06:39.545Z,20.15
2023-04-18T20:09:08.725Z,18.00
2023-04-18T20:11:36.100Z,16.25
2023-04-18T20:14:03.490Z,15.48
2023-04-18T20:16:30.537Z,17.48
2023-04-18T20:18:57.598Z,18.38
2023-04-18T20:21:24.614Z,18.25
2023-04-18T20:24:00.707Z,16.39
2023-04-18T20:26:27.875Z,19.35
2023-04-18T20:28:54.888Z,18.48
2023-04-18T20:31:22.172Z,18.17
2023-04-18T20:33:49.314Z,17.40
2023-04-18T20:36:17.738Z,15.43
2023-04-18T20:38:45.036Z,15.02
2023-04-18T20:41:18.149Z,16.05
2023-04-18T20:43:46.108Z,11.98
2023-04-18T20:46:19.726Z,12.80
2023-04-18T20:48:46.911Z,17.30
2023-04-18T20:51:14.827Z,11.25
2023-04-18T20:53:41.828Z,14.02
2023-04-18T20:56:08.788Z,8.85
2023-04-18T20:58:36.251Z,11.27
2023-04-18T21:01:03.932Z,10.88
2023-04-18T21:03:31.233Z,9.27
2023-04-18T21:05:58.284Z,6.90
2023-04-18T21:08:25.720Z,8.27
2023-04-18T21:10:53.135Z,10.75
2023-04-18T21:13:20.112Z,8.60
2023-04-18T21:15:47.463Z,7.72
2023-04-18T21:18:14.430Z,7.30
2023-04-18T21:20:41.473Z,6.53
2023-04-18T21:23:08.432Z,7.20
2023-04-18T21:25:35.522Z,6.15
2023-04-18T21:28:02.828Z,13.02
2023-04-18T21:30:30.158Z,6.32
2023-04-18T21:32:57.306Z,7.05
2023-04-18T21:35:25.148Z,6.78
2023-04-18T21:37:52.332Z,8.90
2023-04-18T21:40:19.466Z,8.27
2023-04-18T21:42:47.769Z,9.32
2023-04-18T21:45:17.509Z,8.00
2023-04-18T21:47:44.583Z,7.75
2023-04-18T21:50:11.906Z,7.90
2023-04-18T21:52:39.060Z,7.82
2023-04-18T21:55:06.343Z,8.55
2023-04-18T21:57:33.597Z,8.75
2023-04-18T22:00:01.226Z,8.52
2023-04-18T22:02:29.635Z,7.95
2023-04-18T22:04:56.712Z,9.55
2023-04-18T22:07:24.699Z,6.80
2023-04-18T22:09:51.700Z,6.95
2023-04-18T22:12:19.110Z,7.30
2023-04-18T22:14:48.393Z,7.72
2023-04-18T22:17:15.457Z,7.72
2023-04-18T22:19:44.388Z,8.32
2023-04-18T22:22:11.729Z,8.55
2023-04-18T22:24:38.718Z,8.82
2023-04-18T22:27:05.930Z,10.25
2023-04-18T22:29:33.813Z,9.52
2023-04-18T22:32:01.241Z,8.95
2023-04-18T22:34:28.324Z,7.97
2023-04-18T22:36:55.360Z,9.88
2023-04-18T22:39:22.973Z,8.27
2023-04-18T22:41:50.257Z,9.13
2023-04-18T22:44:17.836Z,9.95
2023-04-18T22:46:46.156Z,13.77
2023-04-18T22:49:14.370Z,8.90
2023-04-18T22:51:42.401Z,8.50
2023-04-18T22:54:09.680Z,8.10
2023-04-18T22:56:36.661Z,9.45
2023-04-18T22:59:03.719Z,10.45
2023-04-18T23:01:30.939Z,10.68
2023-04-18T23:03:58.579Z,8.32
2023-04-18T23:06:27.836Z,12.48
2023-04-18T23:08:55.017Z,8.70
2023-04-18T23:11:22.337Z,7.57
2023-04-18T23:13:49.524Z,8.90
2023-04-18T23:16:16.599Z,8.77
2023-04-18T23:18:43.571Z,10.30
2023-04-18T23:21:10.585Z,8.80
2023-04-18T23:23:37.556Z,8.85
2023-04-18T23:26:15.728Z,9.30
2023-04-18T23:28:42.791Z,9.75
2023-04-18T23:31:10.339Z,9.15
2023-04-18T23:33:37.562Z,10.85
2023-04-18T23:36:04.690Z,8.93
2023-04-18T23:38:32.583Z,12.15
2023-04-18T23:40:59.748Z,9.25
2023-04-18T23:43:26.909Z,9.20
2023-04-18T23:45:53.856Z,8.93
2023-04-18T23:48:21.364Z,9.20
2023-04-18T23:50:50.347Z,10.23
2023-04-18T23:53:17.560Z,10.45
2023-04-18T23:55:46.214Z,9.98
2023-04-18T23:58:14.174Z,10.15
